Time;durP1;ratioP1;P1;durP2;ratioP2;P2;SDS_P1;SDS_P2;PMS_P1;PMS_P2;Temp;Humidity;BMP_temperature;BMP_pressure;BME280_temperature;BME280_humidity;BME280_pressure;Samples;Min_cycle;Max_cycle;Signal;HPM_P1;HPM_P2
2022/03/26 00:02:00;;;;;;;44.15;26.60;;;12.60;86.30;;;;;;5070580;28;20196;-35
2022/03/26 00:04:32;;;;;;;46.40;28.27;;;12.50;86.50;;;;;;5069834;28;20307;-35
2022/03/26 00:07:01;;;;;;;40.70;26.47;;;12.50;86.30;;;;;;5068707;28;20207;-35
2022/03/26 00:09:31;;;;;;;44.33;27.03;;;12.50;86.30;;;;;;5050385;28;20967;-34
2022/03/26 00:12:01;;;;;;;39.77;26.60;;;12.50;86.30;;;;;;5050539;28;20287;-35
2022/03/26 00:14:35;;;;;;;42.77;27.30;;;12.50;86.30;;;;;;5049696;28;20239;-35
2022/03/26 00:17:02;;;;;;;41.50;26.33;;;12.50;86.50;;;;;;5069030;28;20227;-34
2022/03/26 00:19:32;;;;;;;43.17;28.43;;;12.50;86.50;;;;;;5069912;28;20212;-35
2022/03/26 00:22:02;;;;;;;44.90;27.53;;;12.50;86.50;;;;;;5070095;28;20200;-34
2022/03/26 00:24:32;;;;;;;44.78;27.05;;;12.50;86.50;;;;;;5069766;28;20206;-35
2022/03/26 00:27:01;;;;;;;41.30;26.57;;;12.40;86.50;;;;;;5068967;28;20233;-34
2022/03/26 00:29:28;;;;;;;40.03;26.20;;;12.40;86.40;;;;;;5068948;28;20298;-35
2022/03/26 00:31:56;;;;;;;44.75;27.95;;;12.40;86.40;;;;;;5069494;28;20203;-35
2022/03/26 00:34:25;;;;;;;44.72;27.60;;;12.40;86.60;;;;;;5069322;28;20215;-34
2022/03/26 00:36:55;;;;;;;45.07;27.30;;;12.40;86.60;;;;;;5070060;28;20281;-35
2022/03/26 00:39:23;;;;;;;38.40;26.33;;;12.40;86.60;;;;;;5102017;28;20303;-32
2022/03/26 00:41:55;;;;;;;41.05;26.40;;;12.30;86.60;;;;;;5069390;28;20211;-32
2022/03/26 00:44:24;;;;;;;40.25;26.40;;;12.30;86.80;;;;;;5069117;28;20212;-32
2022/03/26 00:46:52;;;;;;;37.72;25.75;;;12.30;86.70;;;;;;5052351;28;20212;-34
2022/03/26 00:49:21;;;;;;;37.95;26.33;;;12.20;86.60;;;;;;5053749;28;20568;-32
2022/03/26 00:51:51;;;;;;;38.83;25.30;;;12.30;86.70;;;;;;5069469;28;20207;-32
2022/03/26 00:54:21;;;;;;;41.00;25.25;;;12.20;86.80;;;;;;5069046;28;20243;-32
2022/03/26 00:56:52;;;;;;;41.07;26.37;;;12.20;86.60;;;;;;5069145;28;20255;-35
2022/03/26 00:59:24;;;;;;;43.67;26.97;;;12.20;86.70;;;;;;5101266;28;20575;-32
2022/03/26 01:01:54;;;;;;;41.20;26.17;;;12.20;86.80;;;;;;5068290;28;20226;-32
2022/03/26 01:04:21;;;;;;;39.72;25.48;;;12.10;86.90;;;;;;5054945;28;20240;-32
2022/03/26 01:06:51;;;;;;;39.45;25.52;;;12.10;86.70;;;;;;5056564;28;20615;-32
2022/03/26 01:09:25;;;;;;;36.22;25.42;;;12.10;86.90;;;;;;5084452;28;20200;-32
2022/03/26 01:11:55;;;;;;;39.85;25.33;;;12.10;87.50;;;;;;5101396;28;20682;-32
2022/03/26 01:14:27;;;;;;;39.05;25.55;;;12.10;87.00;;;;;;5068424;28;20315;-32
2022/03/26 01:16:56;;;;;;;40.93;25.97;;;12.10;86.80;;;;;;5068964;28;20235;-33
2022/03/26 01:19:23;;;;;;;38.92;25.95;;;12.10;86.90;;;;;;5063153;28;20212;-32
2022/03/26 01:21:53;;;;;;;37.80;24.77;;;12.10;86.80;;;;;;5047376;28;20311;-33
2022/03/26 01:24:23;;;;;;;43.23;26.80;;;12.10;87.00;;;;;;5062075;28;20227;-32
2022/03/26 01:26:51;;;;;;;36.72;24.48;;;12.00;86.90;;;;;;5068297;28;20223;-32
2022/03/26 01:29:21;;;;;;;39.50;25.67;;;12.00;86.90;;;;;;5068343;28;20292;-33
2022/03/26 01:31:48;;;;;;;43.10;26.57;;;11.90;87.00;;;;;;5068951;28;20204;-31
2022/03/26 01:34:16;;;;;;;40.07;25.40;;;11.80;86.90;;;;;;5068110;28;20223;-33
2022/03/26 01:36:45;;;;;;;41.97;26.87;;;11.80;87.00;;;;;;5067605;28;20243;-32
2022/03/26 01:39:15;;;;;;;44.20;25.77;;;11.70;87.00;;;;;;5067123;28;20222;-32
2022/03/26 01:41:47;;;;;;;39.63;26.07;;;11.60;86.90;;;;;;5067861;28;20207;-32
2022/03/26 01:44:17;;;;;;;41.03;27.07;;;11.60;87.00;;;;;;5066252;28;20587;-32
2022/03/26 01:46:56;;;;;;;41.33;25.90;;;11.60;87.00;;;;;;5068778;28;20207;-33
2022/03/26 01:49:26;;;;;;;44.90;26.07;;;11.60;86.90;;;;;;5066381;28;20587;-32
2022/03/26 01:51:57;;;;;;;37.10;24.73;;;11.50;86.90;;;;;;5068044;28;20269;-32
2022/03/26 01:54:30;;;;;;;38.87;24.70;;;11.50;87.20;;;;;;5067207;28;20686;-32
2022/03/26 01:57:04;;;;;;;40.27;24.73;;;11.50;86.90;;;;;;5099649;28;20219;-32
2022/03/26 01:59:32;;;;;;;37.33;24.43;;;11.50;87.30;;;;;;5067135;28;21567;-32
2022/03/26 02:02:00;;;;;;;35.37;23.40;;;11.50;87.00;;;;;;5067097;28;20195;-32
2022/03/26 02:04:30;;;;;;;38.83;25.27;;;11.50;86.90;;;;;;5067397;28;20314;-32
2022/03/26 02:07:04;;;;;;;38.20;24.93;;;11.50;87.00;;;;;;5067711;28;20196;-32
2022/03/26 02:09:37;;;;;;;37.10;24.53;;;11.50;87.10;;;;;;5067708;28;20265;-32
2022/03/26 02:12:28;;;;;;;41.03;25.03;;;11.50;87.10;;;;;;5066240;28;20253;-32
2022/03/26 02:15:01;;;;;;;38.93;25.50;;;11.50;87.40;;;;;;5064930;28;20620;-32
2022/03/26 02:17:31;;;;;;;36.22;23.75;;;11.50;87.00;;;;;;5067537;28;20775;-32
2022/03/26 02:20:05;;;;;;;36.90;24.90;;;11.50;87.10;;;;;;5066861;28;20199;-31
2022/03/26 02:22:35;;;;;;;37.77;25.00;;;11.50;87.10;;;;;;5067568;28;20203;-32
2022/03/26 02:25:03;;;;;;;41.37;25.10;;;11.50;87.20;;;;;;5067436;28;20247;-32
2022/03/26 02:27:33;;;;;;;38.10;24.40;;;11.50;87.30;;;;;;5066426;28;20224;-32
2022/03/26 02:30:06;;;;;;;39.63;24.23;;;11.50;87.20;;;;;;5066858;28;20290;-32
2022/03/26 02:32:33;;;;;;;35.40;24.87;;;11.40;87.20;;;;;;5067753;28;20302;-32
2022/03/26 02:35:03;;;;;;;38.27;25.03;;;11.40;87.30;;;;;;5067269;28;20657;-32
2022/03/26 02:37:33;;;;;;;36.50;24.23;;;11.40;87.50;;;;;;5067343;28;20314;-32
2022/03/26 02:40:04;;;;;;;36.70;23.63;;;11.40;87.40;;;;;;5067561;28;20196;-32
2022/03/26 02:42:32;;;;;;;40.47;25.30;;;11.40;87.40;;;;;;5067143;28;20249;-33
2022/03/26 02:45:00;;;;;;;39.90;26.27;;;11.40;87.40;;;;;;5066448;28;20261;-32
2022/03/26 02:47:28;;;;;;;37.13;25.20;;;11.40;87.40;;;;;;5067399;28;20212;-32
2022/03/26 02:49:55;;;;;;;40.37;23.73;;;11.40;87.50;;;;;;5066093;28;20247;-33
2022/03/26 02:52:23;;;;;;;39.80;24.90;;;11.40;87.40;;;;;;5066776;28;20631;-32
2022/03/26 02:54:53;;;;;;;37.70;23.83;;;11.30;87.30;;;;;;5066683;28;20784;-32
2022/03/26 02:57:20;;;;;;;38.57;24.60;;;11.40;87.70;;;;;;5064822;28;20322;-32
2022/03/26 02:59:47;;;;;;;38.67;24.83;;;11.30;87.50;;;;;;5066707;28;20219;-32
2022/03/26 03:02:15;;;;;;;38.20;25.23;;;11.30;87.50;;;;;;5053554;28;20220;-34
2022/03/26 03:04:42;;;;;;;42.67;26.67;;;11.30;87.50;;;;;;5046595;28;20294;-35
2022/03/26 03:07:10;;;;;;;42.00;25.07;;;11.30;87.50;;;;;;5066994;28;20297;-35
2022/03/26 03:09:39;;;;;;;39.60;24.97;;;11.30;87.40;;;;;;5066912;28;20222;-35
2022/03/26 03:12:09;;;;;;;40.67;24.70;;;11.30;87.50;;;;;;5067158;28;20211;-35
2022/03/26 03:14:37;;;;;;;37.73;25.30;;;11.20;87.60;;;;;;5065286;28;20672;-35
2022/03/26 03:17:05;;;;;;;39.13;25.67;;;11.20;87.70;;;;;;5063545;28;20230;-35
2022/03/26 03:19:32;;;;;;;36.53;24.87;;;11.20;87.70;;;;;;5056407;28;20220;-35
2022/03/26 03:22:00;;;;;;;41.93;25.00;;;11.20;87.40;;;;;;5048920;28;20222;-35
2022/03/26 03:24:27;;;;;;;37.53;26.00;;;11.20;87.50;;;;;;5065789;28;20693;-35
2022/03/26 03:26:59;;;;;;;42.27;26.37;;;11.10;87.50;;;;;;5067234;28;20760;-35
2022/03/26 03:29:30;;;;;;;38.67;23.93;;;11.10;87.40;;;;;;5066865;28;20219;-34
2022/03/26 03:32:00;;;;;;;37.30;25.17;;;11.10;87.60;;;;;;5067045;28;20215;-35
2022/03/26 03:34:30;;;;;;;38.37;25.77;;;11.00;87.70;;;;;;5066947;28;20294;-35
2022/03/26 03:37:02;;;;;;;36.90;25.33;;;11.00;87.50;;;;;;5064976;28;20234;-34
2022/03/26 03:39:34;;;;;;;44.23;25.90;;;11.00;87.70;;;;;;5067281;28;20506;-35
2022/03/26 03:42:07;;;;;;;41.43;25.67;;;10.90;87.70;;;;;;5066643;28;20203;-35
2022/03/26 03:44:35;;;;;;;42.33;26.27;;;10.90;87.80;;;;;;5066410;28;20566;-35
2022/03/26 03:47:07;;;;;;;42.43;26.23;;;10.80;88.10;;;;;;5065704;28;20701;-34
2022/03/26 03:49:35;;;;;;;43.00;25.30;;;10.80;88.00;;;;;;5066918;28;20674;-34
2022/03/26 03:52:05;;;;;;;37.93;25.50;;;10.80;88.30;;;;;;5066189;28;20212;-35
2022/03/26 03:54:35;;;;;;;39.73;25.40;;;10.80;87.80;;;;;;5066658;28;20231;-35
2022/03/26 03:57:05;;;;;;;38.10;25.90;;;10.70;88.10;;;;;;5066387;28;20231;-35
2022/03/26 03:59:34;;;;;;;40.50;26.97;;;10.70;87.70;;;;;;5065184;28;20627;-34
2022/03/26 04:02:01;;;;;;;39.57;25.57;;;10.70;87.70;;;;;;5069260;28;20340;-35
2022/03/26 04:04:29;;;;;;;41.77;26.13;;;10.70;87.70;;;;;;5070278;28;20195;-34
2022/03/26 04:06:56;;;;;;;39.60;26.87;;;10.70;87.80;;;;;;5070344;28;20207;-34
2022/03/26 04:09:24;;;;;;;39.60;26.33;;;10.60;87.80;;;;;;5069762;28;20207;-34
2022/03/26 04:11:54;;;;;;;43.37;26.47;;;10.60;87.70;;;;;;5070151;28;20220;-35
2022/03/26 04:14:21;;;;;;;41.57;26.23;;;10.60;87.80;;;;;;5069634;28;20207;-35
2022/03/26 04:16:50;;;;;;;38.67;26.10;;;10.60;87.70;;;;;;5070270;28;20273;-34
2022/03/26 04:19:18;;;;;;;40.13;26.87;;;10.60;88.00;;;;;;5068174;28;20754;-34
2022/03/26 04:21:48;;;;;;;36.97;25.27;;;10.50;88.20;;;;;;5070338;28;20243;-35
2022/03/26 04:24:18;;;;;;;41.97;26.57;;;10.50;87.80;;;;;;5068807;28;20218;-35
2022/03/26 04:26:57;;;;;;;46.23;27.10;;;10.50;88.10;;;;;;5060399;28;20230;-34
2022/03/26 04:29:24;;;;;;;38.67;26.60;;;10.40;88.00;;;;;;5053418;28;20195;-35
2022/03/26 04:31:54;;;;;;;44.90;26.77;;;10.40;87.80;;;;;;5069698;28;20298;-35
2022/03/26 04:34:21;;;;;;;37.93;25.63;;;10.40;88.10;;;;;;5069208;28;20685;-34
2022/03/26 04:36:48;;;;;;;41.17;26.10;;;10.30;87.80;;;;;;5070127;28;20417;-35
2022/03/26 04:39:20;;;;;;;42.60;27.17;;;10.30;88.10;;;;;;5069500;28;20704;-35
2022/03/26 04:41:50;;;;;;;39.57;26.87;;;10.30;88.30;;;;;;5068124;28;20286;-34
2022/03/26 04:44:17;;;;;;;45.37;27.27;;;10.30;88.10;;;;;;5068622;28;20262;-35
2022/03/26 04:46:45;;;;;;;42.03;26.83;;;10.30;88.10;;;;;;5069415;28;20242;-35
2022/03/26 04:49:12;;;;;;;43.13;26.10;;;10.30;88.00;;;;;;5067474;28;20284;-35
2022/03/26 04:51:39;;;;;;;41.90;26.87;;;10.30;88.10;;;;;;5069727;28;20199;-34
2022/03/26 04:54:09;;;;;;;42.80;26.67;;;10.30;88.50;;;;;;5069399;28;20243;-35
2022/03/26 04:56:37;;;;;;;45.03;25.40;;;10.20;88.10;;;;;;5069499;28;20693;-34
2022/03/26 04:59:07;;;;;;;42.70;27.43;;;10.20;88.10;;;;;;5067419;28;20232;-34
2022/03/26 05:01:36;;;;;;;41.67;26.43;;;10.20;88.20;;;;;;5052565;28;20196;-35
2022/03/26 05:04:06;;;;;;;38.20;25.47;;;10.20;88.20;;;;;;5051157;28;20208;-34
2022/03/26 05:06:33;;;;;;;38.43;25.60;;;10.10;88.00;;;;;;5068262;28;20203;-34
2022/03/26 05:09:03;;;;;;;44.20;27.00;;;10.20;88.20;;;;;;5069312;28;20681;-34
2022/03/26 05:11:30;;;;;;;38.20;25.93;;;10.10;88.30;;;;;;5069351;28;20203;-34
2022/03/26 05:13:59;;;;;;;44.50;26.80;;;10.10;88.50;;;;;;5066511;28;20212;-35
2022/03/26 05:16:27;;;;;;;41.77;26.13;;;10.10;88.80;;;;;;5069782;28;20188;-34
2022/03/26 05:18:54;;;;;;;42.77;26.43;;;10.10;88.40;;;;;;5050392;28;20235;-34
2022/03/26 05:21:21;;;;;;;42.13;26.90;;;10.10;88.40;;;;;;5054104;28;20570;-35
2022/03/26 05:23:48;;;;;;;43.60;27.30;;;10.10;88.60;;;;;;5068854;28;20207;-34
2022/03/26 05:26:22;;;;;;;46.63;27.00;;;10.10;88.70;;;;;;5068792;28;20200;-34
2022/03/26 05:28:54;;;;;;;41.33;26.80;;;10.00;89.20;;;;;;5068015;28;20571;-34
2022/03/26 05:31:22;;;;;;;45.53;26.80;;;10.00;88.80;;;;;;5067580;28;20227;-34
2022/03/26 05:33:49;;;;;;;39.10;26.00;;;9.90;89.70;;;;;;5067670;28;20215;-34
2022/03/26 05:36:19;;;;;;;39.77;26.10;;;9.90;89.60;;;;;;5062905;28;20202;-35
2022/03/26 05:38:51;;;;;;;40.37;26.40;;;10.00;88.60;;;;;;5067558;28;20245;-35
2022/03/26 05:41:23;;;;;;;41.80;26.63;;;10.00;88.90;;;;;;5067618;28;20665;-35
2022/03/26 05:43:51;;;;;;;45.03;27.43;;;9.90;89.70;;;;;;5067914;28;20235;-35
2022/03/26 05:46:20;;;;;;;45.43;27.90;;;9.90;89.70;;;;;;5068601;28;20318;-35
2022/03/26 05:48:48;;;;;;;40.93;26.23;;;9.90;89.80;;;;;;5066687;28;20199;-35
2022/03/26 05:51:20;;;;;;;42.80;26.27;;;9.90;89.90;;;;;;5063844;28;20721;-35
2022/03/26 05:53:50;;;;;;;40.83;26.30;;;9.90;90.00;;;;;;5047188;28;20245;-35
2022/03/26 05:56:20;;;;;;;42.43;26.90;;;9.80;90.00;;;;;;5061285;28;20215;-35
2022/03/26 05:58:52;;;;;;;43.37;25.77;;;9.80;90.10;;;;;;5066103;28;20655;-34
2022/03/26 06:01:22;;;;;;;40.43;25.37;;;9.70;90.10;;;;;;5063094;28;20213;-35
2022/03/26 06:03:54;;;;;;;40.17;26.73;;;9.70;90.10;;;;;;5047708;28;20246;-35
2022/03/26 06:06:21;;;;;;;42.57;27.23;;;9.60;90.00;;;;;;5056644;28;20627;-35
2022/03/26 06:08:49;;;;;;;41.67;26.77;;;9.60;90.00;;;;;;5078019;28;20249;-33
2022/03/26 06:11:16;;;;;;;41.10;27.27;;;9.60;90.00;;;;;;5067995;28;20209;-33
2022/03/26 06:13:46;;;;;;;43.83;27.50;;;9.60;90.10;;;;;;5049367;28;20207;-33
2022/03/26 06:16:14;;;;;;;44.90;27.63;;;9.70;90.00;;;;;;5047847;28;20212;-32
2022/03/26 06:18:42;;;;;;;43.27;27.00;;;9.70;90.10;;;;;;5066129;28;20227;-33
2022/03/26 06:21:12;;;;;;;43.83;27.57;;;9.70;90.10;;;;;;5066815;28;20310;-33
2022/03/26 06:23:39;;;;;;;47.63;28.57;;;9.70;90.10;;;;;;5067417;28;20196;-32
2022/03/26 06:26:11;;;;;;;44.83;27.57;;;9.70;90.20;;;;;;5067599;28;20554;-32
2022/03/26 06:28:38;;;;;;;45.97;27.43;;;9.70;90.90;;;;;;5065654;28;20702;-32
2022/03/26 06:31:12;;;;;;;43.63;26.97;;;9.70;90.30;;;;;;5067491;28;20677;-32
2022/03/26 06:33:42;;;;;;;45.47;27.20;;;9.70;90.30;;;;;;5065884;28;20195;-33
2022/03/26 06:36:09;;;;;;;45.37;28.23;;;9.80;90.30;;;;;;5067848;28;20219;-32
2022/03/26 06:38:41;;;;;;;43.87;27.63;;;9.80;90.30;;;;;;5067566;28;20226;-32
2022/03/26 06:41:09;;;;;;;45.60;28.53;;;9.80;90.40;;;;;;5067726;28;20294;-32
2022/03/26 06:43:40;;;;;;;41.10;28.07;;;9.80;90.30;;;;;;5066196;28;20301;-32
2022/03/26 06:46:11;;;;;;;43.93;27.67;;;9.90;90.40;;;;;;5061124;28;20632;-32
2022/03/26 06:48:38;;;;;;;41.00;26.83;;;9.90;90.50;;;;;;5067090;28;20524;-32
2022/03/26 06:51:08;;;;;;;48.80;28.60;;;9.90;90.40;;;;;;5067539;28;20774;-32
2022/03/26 06:53:36;;;;;;;47.27;29.43;;;10.00;90.00;;;;;;5067481;28;20289;-32
2022/03/26 06:56:12;;;;;;;42.23;28.67;;;10.00;90.00;;;;;;5067580;28;20294;-32
2022/03/26 06:58:44;;;;;;;50.13;29.80;;;10.00;90.10;;;;;;5066410;28;20227;-32
2022/03/26 07:01:14;;;;;;;49.47;29.83;;;10.10;90.10;;;;;;5047438;28;20397;-32
2022/03/26 07:03:41;;;;;;;47.10;29.57;;;10.10;90.10;;;;;;5054549;28;20493;-32
2022/03/26 07:06:12;;;;;;;48.10;30.33;;;10.10;90.10;;;;;;5067403;28;20290;-32
2022/03/26 07:08:39;;;;;;;55.67;29.33;;;10.20;90.20;;;;;;5067286;28;20586;-34
2022/03/26 07:11:06;;;;;;;45.60;30.00;;;10.20;90.30;;;;;;5067211;28;20211;-34
2022/03/26 07:13:34;;;;;;;49.10;29.20;;;10.30;90.30;;;;;;5066385;28;20203;-34
2022/03/26 07:16:01;;;;;;;45.53;29.97;;;10.30;90.60;;;;;;5065361;28;20322;-34
2022/03/26 07:18:28;;;;;;;50.27;30.97;;;10.30;90.30;;;;;;5066642;28;20311;-34
2022/03/26 07:21:00;;;;;;;46.27;29.53;;;10.40;90.60;;;;;;5065179;28;20287;-34
2022/03/26 07:23:28;;;;;;;44.47;28.73;;;10.40;90.40;;;;;;5067211;28;20191;-34
2022/03/26 07:25:57;;;;;;;44.93;29.70;;;10.50;90.50;;;;;;5067409;28;20845;-34
2022/03/26 07:28:29;;;;;;;46.67;28.20;;;10.50;90.50;;;;;;5066158;28;20215;-34
2022/03/26 07:31:01;;;;;;;45.03;29.43;;;10.50;90.50;;;;;;5065985;28;20523;-34
2022/03/26 07:33:31;;;;;;;46.33;29.93;;;10.60;90.60;;;;;;5060209;28;20295;-34
2022/03/26 07:35:58;;;;;;;43.03;28.73;;;10.60;90.60;;;;;;5047544;28;20291;-34
2022/03/26 07:38:25;;;;;;;47.43;30.10;;;10.70;90.60;;;;;;5064173;28;20661;-34
2022/03/26 07:40:53;;;;;;;44.50;29.67;;;10.70;90.70;;;;;;5070858;28;20286;-34
2022/03/26 07:43:25;;;;;;;47.43;29.17;;;10.80;90.70;;;;;;5070052;28;20272;-34
2022/03/26 07:45:55;;;;;;;51.20;31.23;;;10.90;90.80;;;;;;5070719;28;20203;-34
2022/03/26 07:48:25;;;;;;;48.93;29.70;;;10.90;90.80;;;;;;5070247;28;20223;-34
2022/03/26 07:50:52;;;;;;;50.23;30.57;;;10.90;90.80;;;;;;5064815;28;20236;-35
2022/03/26 07:53:25;;;;;;;44.53;30.30;;;10.90;90.90;;;;;;5061908;28;20231;-34
2022/03/26 07:55:57;;;;;;;45.60;29.90;;;11.00;90.90;;;;;;5070514;28;20242;-34
2022/03/26 07:58:24;;;;;;;46.33;30.30;;;11.00;90.90;;;;;;5068114;28;20311;-34
2022/03/26 08:00:56;;;;;;;43.80;29.03;;;11.10;90.90;;;;;;5069084;28;20450;-34
2022/03/26 08:03:28;;;;;;;48.13;30.57;;;11.10;90.90;;;;;;5070045;28;20225;-32
2022/03/26 08:05:56;;;;;;;44.33;29.83;;;11.20;91.10;;;;;;5069045;28;20195;-32
2022/03/26 08:08:26;;;;;;;49.27;30.80;;;11.30;91.10;;;;;;5068698;28;20256;-34
2022/03/26 08:10:53;;;;;;;45.90;30.63;;;11.30;91.10;;;;;;5069828;28;20741;-34
2022/03/26 08:13:20;;;;;;;45.03;29.87;;;11.40;91.10;;;;;;5069389;28;20200;-34
2022/03/26 08:15:53;;;;;;;50.83;32.33;;;11.40;91.20;;;;;;5070800;28;20572;-34
2022/03/26 08:18:23;;;;;;;50.70;32.43;;;11.50;91.40;;;;;;5069418;28;20278;-34
2022/03/26 08:20:50;;;;;;;48.17;30.53;;;11.50;91.30;;;;;;5068785;28;20298;-34
2022/03/26 08:23:20;;;;;;;46.13;29.65;;;11.60;91.40;;;;;;5070053;28;20276;-34
2022/03/26 08:28:37;;;;;;;47.23;29.80;;;11.70;91.50;;;;;;5056366;28;20266;-34
2022/03/26 08:31:10;;;;;;;43.83;29.80;;;11.80;91.50;;;;;;5069903;28;20712;-34
2022/03/26 08:33:41;;;;;;;47.00;30.27;;;11.90;91.60;;;;;;5069767;28;20670;-34
2022/03/26 08:36:14;;;;;;;42.47;29.37;;;11.90;91.50;;;;;;5069746;28;20199;-34
2022/03/26 08:38:47;;;;;;;44.73;31.17;;;12.00;91.60;;;;;;5069208;28;20782;-34
2022/03/26 08:41:16;;;;;;;44.17;29.27;;;12.10;91.60;;;;;;5069079;28;20195;-34
2022/03/26 08:43:44;;;;;;;50.10;31.80;;;12.10;91.60;;;;;;5068844;28;20204;-34
2022/03/26 08:46:11;;;;;;;52.17;32.73;;;12.20;91.90;;;;;;5069041;28;20220;-34
2022/03/26 08:48:41;;;;;;;46.70;29.93;;;12.30;91.80;;;;;;5068434;28;20204;-35
2022/03/26 08:51:09;;;;;;;51.63;30.93;;;12.30;91.80;;;;;;5069515;28;20639;-34
2022/03/26 08:53:39;;;;;;;47.07;30.87;;;12.40;91.90;;;;;;5068993;28;20623;-34
2022/03/26 08:56:08;;;;;;;45.23;29.97;;;12.50;91.90;;;;;;5069350;28;20208;-34
2022/03/26 08:58:36;;;;;;;47.80;28.93;;;12.50;91.90;;;;;;5061625;28;20832;-35
2022/03/26 09:01:06;;;;;;;51.00;30.50;;;12.60;91.90;;;;;;5058610;28;20204;-35
2022/03/26 09:03:37;;;;;;;45.30;29.77;;;12.70;92.10;;;;;;5061785;28;20203;-34
2022/03/26 09:06:09;;;;;;;45.10;28.73;;;12.80;92.30;;;;;;5069228;28;20223;-35
2022/03/26 09:08:38;;;;;;;45.77;29.43;;;12.80;92.00;;;;;;5067780;28;20201;-34
2022/03/26 09:11:10;;;;;;;44.50;29.03;;;12.90;92.10;;;;;;5068957;28;20592;-34
2022/03/26 09:13:37;;;;;;;44.90;28.73;;;13.00;92.20;;;;;;5066932;28;20599;-34
2022/03/26 09:16:05;;;;;;;47.53;30.40;;;13.10;92.20;;;;;;5057749;28;20237;-34
2022/03/26 09:18:32;;;;;;;47.80;30.63;;;13.10;92.20;;;;;;5048308;28;20220;-34
2022/03/26 09:21:00;;;;;;;44.13;29.63;;;13.20;92.40;;;;;;5067477;28;20203;-34
2022/03/26 09:23:33;;;;;;;47.13;29.90;;;13.30;92.40;;;;;;5068518;28;20214;-34
2022/03/26 09:26:04;;;;;;;46.37;30.43;;;13.40;92.40;;;;;;5068436;28;20196;-34
2022/03/26 09:28:34;;;;;;;44.83;30.13;;;13.40;92.50;;;;;;5067822;28;20681;-35
2022/03/26 09:31:01;;;;;;;46.00;29.25;;;13.50;92.50;;;;;;5068562;28;20211;-34
2022/03/26 09:33:34;;;;;;;48.55;32.30;;;13.60;92.50;;;;;;5065680;28;20220;-34
2022/03/26 09:36:03;;;;;;;51.63;32.50;;;13.60;92.60;;;;;;5066350;28;20688;-34
2022/03/26 09:38:31;;;;;;;53.90;32.77;;;13.70;92.80;;;;;;5053208;28;20326;-34
2022/03/26 09:40:58;;;;;;;52.17;32.28;;;13.80;92.70;;;;;;5067026;28;20283;-34
2022/03/26 09:43:31;;;;;;;45.83;29.73;;;13.80;92.80;;;;;;5067468;28;20217;-34
2022/03/26 09:45:59;;;;;;;47.83;30.47;;;13.90;92.70;;;;;;5068700;28;20242;-34
2022/03/26 09:48:28;;;;;;;44.88;29.60;;;13.90;92.70;;;;;;5068235;28;20657;-34
2022/03/26 09:50:57;;;;;;;42.95;29.88;;;14.00;92.80;;;;;;5067327;28;20222;-35
2022/03/26 09:53:25;;;;;;;42.40;28.75;;;14.10;92.80;;;;;;5067633;28;20793;-34
2022/03/26 09:55:54;;;;;;;43.60;28.13;;;14.20;92.90;;;;;;5066600;28;20208;-34
2022/03/26 09:58:21;;;;;;;57.17;30.30;;;14.30;92.90;;;;;;5067056;28;20223;-34
2022/03/26 10:00:53;;;;;;;54.83;29.07;;;14.40;93.00;;;;;;5067682;28;20207;-34
2022/03/26 10:03:25;;;;;;;43.75;27.75;;;14.40;93.00;;;;;;5067135;28;20192;-35
2022/03/26 10:06:09;;;;;;;41.08;26.65;;;14.50;93.00;;;;;;5062358;28;20226;-35
2022/03/26 10:08:40;;;;;;;44.30;27.15;;;14.60;93.10;;;;;;5063742;28;20313;-34
2022/03/26 10:11:22;;;;;;;46.03;27.17;;;14.70;93.40;;;;;;5059723;28;20740;-34
2022/03/26 10:13:55;;;;;;;45.50;26.33;;;14.80;93.10;;;;;;5067351;28;20207;-34
2022/03/26 10:16:27;;;;;;;38.58;24.80;;;14.90;93.20;;;;;;5067873;28;20226;-34
2022/03/26 10:18:58;;;;;;;45.85;27.50;;;14.90;93.20;;;;;;5065788;28;20215;-34
2022/03/26 10:21:25;;;;;;;47.20;29.00;;;15.00;93.10;;;;;;5067758;28;20200;-34
2022/03/26 10:23:56;;;;;;;45.33;27.50;;;15.10;93.10;;;;;;5058031;28;20216;-34
2022/03/26 10:26:26;;;;;;;42.92;28.02;;;15.10;93.20;;;;;;5047838;28;20200;-34
2022/03/26 10:28:58;;;;;;;46.38;27.88;;;15.20;93.10;;;;;;5045635;28;20211;-34
2022/03/26 10:34:19;;;;;;;35.00;24.13;;;15.40;93.30;;;;;;5047075;28;20224;-34
2022/03/26 10:36:56;;;;;;;37.70;25.40;;;15.50;93.30;;;;;;5055436;28;20192;-34
2022/03/26 10:39:27;;;;;;;42.92;26.30;;;15.60;93.30;;;;;;5066725;28;20226;-34
2022/03/26 10:41:58;;;;;;;42.97;26.33;;;15.60;93.50;;;;;;5049005;28;20278;-35
2022/03/26 10:44:29;;;;;;;40.97;25.60;;;15.70;93.20;;;;;;5035286;28;20770;-32
2022/03/26 10:47:02;;;;;;;41.03;24.83;;;15.70;93.10;;;;;;5067338;28;20235;-32
2022/03/26 10:49:36;;;;;;;41.65;26.58;;;15.80;92.90;;;;;;5067095;28;20253;-32
2022/03/26 10:52:17;;;;;;;40.13;26.40;;;15.90;93.10;;;;;;5067262;28;20213;-32
2022/03/26 10:54:47;;;;;;;35.25;24.67;;;16.00;93.20;;;;;;5067150;28;20250;-32
2022/03/26 10:57:18;;;;;;;31.60;23.40;;;16.00;93.20;;;;;;5062416;28;20574;-32
2022/03/26 10:59:49;;;;;;;41.35;25.35;;;16.10;93.40;;;;;;5046594;28;20673;-32
2022/03/26 11:02:18;;;;;;;41.55;25.63;;;16.30;93.30;;;;;;5058477;28;20200;-32
2022/03/26 11:04:49;;;;;;;35.92;23.45;;;16.30;93.20;;;;;;5065277;28;20620;-32
2022/03/26 11:07:18;;;;;;;33.63;22.23;;;16.30;93.30;;;;;;5066950;28;20259;-32
2022/03/26 11:09:51;;;;;;;34.65;23.85;;;16.40;93.30;;;;;;5067090;28;20303;-32
2022/03/26 11:12:19;;;;;;;36.30;22.83;;;16.50;93.20;;;;;;5070693;28;20227;-32
2022/03/26 11:14:48;;;;;;;31.20;21.25;;;16.50;93.20;;;;;;5070236;28;20215;-32
2022/03/26 11:17:19;;;;;;;31.40;21.75;;;16.60;93.30;;;;;;5063150;28;20212;-32
2022/03/26 11:20:14;;;;;;;33.25;22.38;;;16.60;93.30;;;;;;5053581;28;20251;-32
2022/03/26 11:23:09;;;;;;;37.55;23.50;;;16.70;93.40;;;;;;5050885;28;20287;-33
2022/03/26 11:26:02;;;;;;;36.15;23.48;;;16.80;93.30;;;;;;5049396;28;20208;-32
2022/03/26 11:28:45;;;;;;;36.78;23.75;;;16.90;93.30;;;;;;5050355;28;20246;-32
2022/03/26 11:31:31;;;;;;;34.33;22.27;;;16.90;93.10;;;;;;5051350;28;20258;-36
2022/03/26 11:34:04;;;;;;;33.97;21.60;;;16.90;92.50;;;;;;5050218;28;20222;-33
2022/03/26 11:36:33;;;;;;;30.35;20.67;;;17.00;93.30;;;;;;5058584;28;20200;-32
2022/03/26 11:39:18;;;;;;;29.48;19.25;;;17.10;93.40;;;;;;5050346;28;20422;-32
2022/03/26 11:41:48;;;;;;;29.75;20.75;;;17.10;93.40;;;;;;5063465;28;20699;-32
2022/03/26 11:44:21;;;;;;;37.35;22.65;;;17.20;93.60;;;;;;5070098;28;20262;-32
2022/03/26 11:52:31;;;;;;;31.48;20.35;;;17.30;92.60;;;;;;5055775;28;20314;-32
2022/03/26 11:55:27;;;;;;;27.17;18.50;;;17.30;93.00;;;;;;5068374;28;20236;-32
2022/03/26 11:58:15;;;;;;;33.90;20.58;;;17.40;93.10;;;;;;5069640;28;20195;-36
2022/03/26 12:00:56;;;;;;;31.17;18.50;;;17.40;92.80;;;;;;5070117;28;20783;-35
2022/03/26 12:03:24;;;;;;;31.05;19.42;;;17.50;92.20;;;;;;5068361;28;20703;-35
2022/03/26 12:08:55;;;;;;;28.45;18.75;;;17.60;93.00;;;;;;5069515;28;20257;-32
2022/03/26 12:11:33;;;;;;;32.00;19.95;;;17.60;92.80;;;;;;5049784;28;20227;-32
2022/03/26 12:14:08;;;;;;;29.17;19.02;;;17.70;92.80;;;;;;5048874;28;20291;-32
2022/03/26 12:16:51;;;;;;;32.58;19.23;;;17.70;92.90;;;;;;5049396;28;20253;-32
2022/03/26 12:19:46;;;;;;;29.80;19.55;;;17.80;92.90;;;;;;5047511;28;20714;-32
2022/03/26 12:22:18;;;;;;;31.33;18.17;;;17.80;92.70;;;;;;5051791;28;20722;-32
2022/03/26 12:24:48;;;;;;;22.63;15.50;;;17.90;92.80;;;;;;5058221;28;20675;-33
2022/03/26 12:27:17;;;;;;;25.45;16.70;;;17.90;92.90;;;;;;5068951;28;20665;-32
2022/03/26 12:29:47;;;;;;;26.85;18.60;;;18.00;93.00;;;;;;5069030;28;20200;-32
2022/03/26 12:32:20;;;;;;;28.02;17.13;;;18.00;92.40;;;;;;5069503;28;20578;-32
2022/03/26 12:35:01;;;;;;;25.67;17.45;;;18.00;91.90;;;;;;5067389;28;20230;-33
2022/03/26 12:37:29;;;;;;;25.88;15.07;;;18.00;92.10;;;;;;5067846;28;20192;-32
2022/03/26 12:39:56;;;;;;;25.20;15.93;;;18.10;92.60;;;;;;5059234;28;20250;-32
2022/03/26 12:42:25;;;;;;;27.98;15.70;;;18.10;92.00;;;;;;5067167;28;20199;-32
2022/03/26 12:44:53;;;;;;;27.00;15.40;;;18.10;92.30;;;;;;5068999;28;20596;-32
2022/03/26 12:47:28;;;;;;;31.00;15.48;;;18.10;91.50;;;;;;5069097;28;20227;-32
2022/03/26 12:49:58;;;;;;;26.83;16.40;;;18.20;91.90;;;;;;5068544;28;20296;-32
2022/03/26 12:52:30;;;;;;;30.33;17.27;;;18.20;91.90;;;;;;5069187;28;20196;-32
2022/03/26 12:54:59;;;;;;;28.52;17.95;;;18.20;91.40;;;;;;5069258;28;20243;-32
2022/03/26 12:58:56;;;;;;;24.73;15.90;;;18.20;91.90;;;;;;5054479;28;20212;-33
2022/03/26 13:00:23;;;;;;;28.05;17.50;;;18.30;92.20;;;;;;5052739;28;20227;-33